Time;durP1;ratioP1;P1;durP2;ratioP2;P2;SDS_P1;SDS_P2;PMS_P1;PMS_P2;Temp;Humidity;BMP_temperature;BMP_pressure;BME280_temperature;BME280_humidity;BME280_pressure;Samples;Min_cycle;Max_cycle;Signal;HPM_P1;HPM_P2
2021/04/04 00:00:36;;;;;;;26.77;6.27;;;8.50;99.90;;;;;;5105522;28;20174;-68
2021/04/04 00:03:02;;;;;;;22.07;6.33;;;8.50;99.90;;;;;;5105475;28;20536;-68
2021/04/04 00:05:27;;;;;;;23.30;6.77;;;8.50;99.90;;;;;;5103128;28;20174;-68
2021/04/04 00:07:53;;;;;;;29.17;7.00;;;8.60;99.90;;;;;;5105723;28;20550;-68
2021/04/04 00:10:18;;;;;;;32.83;7.00;;;8.70;99.90;;;;;;5105863;28;20159;-68
2021/04/04 00:12:46;;;;;;;37.80;6.63;;;8.60;99.90;;;;;;5105848;28;20684;-68
2021/04/04 00:15:16;;;;;;;46.40;7.43;;;8.50;99.90;;;;;;5102958;28;20244;-68
2021/04/04 00:17:42;;;;;;;27.43;7.27;;;8.60;99.90;;;;;;5105742;28;20152;-68
2021/04/04 00:20:16;;;;;;;25.17;7.33;;;8.50;99.90;;;;;;5105507;28;20183;-68
2021/04/04 00:22:42;;;;;;;33.80;7.00;;;8.40;99.90;;;;;;5105823;28;20231;-68
2021/04/04 00:25:11;;;;;;;30.50;7.23;;;8.00;99.90;;;;;;5103492;28;20170;-68
2021/04/04 00:27:37;;;;;;;27.37;7.67;;;8.00;99.90;;;;;;5105211;28;20225;-68
2021/04/04 00:30:14;;;;;;;33.73;7.83;;;7.90;99.90;;;;;;5105198;28;20208;-68
2021/04/04 00:32:40;;;;;;;23.23;7.60;;;8.00;99.90;;;;;;5109377;28;20166;-68
2021/04/04 00:35:12;;;;;;;23.43;7.70;;;7.90;99.90;;;;;;5107657;28;20191;-68
2021/04/04 00:37:38;;;;;;;29.80;7.30;;;8.00;99.90;;;;;;5109001;28;20164;-68
2021/04/04 00:40:31;;;;;;;22.07;7.37;;;8.00;99.90;;;;;;5109228;28;20158;-68
2021/04/04 00:42:57;;;;;;;37.03;8.57;;;8.20;99.90;;;;;;5109189;28;20164;-68
2021/04/04 00:45:27;;;;;;;37.23;7.90;;;8.30;99.90;;;;;;5106595;28;20224;-69
2021/04/04 00:47:53;;;;;;;23.60;7.70;;;8.10;99.90;;;;;;5109396;28;20390;-68
2021/04/04 00:50:26;;;;;;;29.33;7.60;;;7.90;99.90;;;;;;5108947;28;20584;-68
2021/04/04 00:52:52;;;;;;;33.90;8.27;;;8.00;99.90;;;;;;5109168;28;20168;-68
2021/04/04 00:55:19;;;;;;;34.07;8.93;;;8.20;99.90;;;;;;5106371;28;20187;-68
2021/04/04 00:57:45;;;;;;;23.23;7.57;;;8.30;99.90;;;;;;5109163;28;20163;-68
2021/04/04 01:00:13;;;;;;;31.83;7.53;;;8.20;99.90;;;;;;5090386;28;20163;-68
2021/04/04 01:02:41;;;;;;;32.43;8.47;;;8.40;99.90;;;;;;5108947;28;20160;-68
2021/04/04 01:05:10;;;;;;;35.07;8.97;;;8.40;99.90;;;;;;5107075;28;20254;-68
2021/04/04 01:07:36;;;;;;;18.73;7.60;;;8.50;99.90;;;;;;5108450;28;20151;-68
2021/04/04 01:10:05;;;;;;;25.30;8.20;;;8.50;99.90;;;;;;5108869;28;20180;-68
2021/04/04 01:13:02;;;;;;;23.43;8.70;;;8.50;99.90;;;;;;5108658;28;20164;-68
2021/04/04 01:15:29;;;;;;;29.67;8.70;;;8.40;99.90;;;;;;5105782;28;20694;-68
2021/04/04 01:18:00;;;;;;;30.53;9.40;;;8.30;99.90;;;;;;5108507;28;20696;-68
2021/04/04 01:20:34;;;;;;;26.70;8.50;;;8.20;99.90;;;;;;5108564;28;20159;-68
2021/04/04 01:23:28;;;;;;;25.90;8.90;;;8.10;99.90;;;;;;5108458;28;20158;-68
2021/04/04 01:26:12;;;;;;;33.70;9.20;;;8.30;99.90;;;;;;5105721;28;20174;-68
2021/04/04 01:28:42;;;;;;;21.93;8.40;;;8.30;99.90;;;;;;5108151;28;20167;-68
2021/04/04 01:31:09;;;;;;;27.27;8.53;;;8.30;99.90;;;;;;5090078;28;20171;-68
2021/04/04 01:33:36;;;;;;;34.50;9.90;;;8.00;99.90;;;;;;5108218;28;20176;-68
2021/04/04 01:36:07;;;;;;;32.97;9.20;;;8.10;99.90;;;;;;5105432;28;20202;-68
2021/04/04 01:38:36;;;;;;;30.27;9.67;;;8.30;99.90;;;;;;5090148;28;20224;-68
2021/04/04 01:41:07;;;;;;;27.00;9.77;;;8.10;99.90;;;;;;5108007;28;20160;-68
2021/04/04 01:43:33;;;;;;;24.43;8.87;;;7.90;99.90;;;;;;5106828;28;20171;-68
2021/04/04 01:46:00;;;;;;;28.57;9.50;;;7.70;99.90;;;;;;5105428;28;20208;-68
2021/04/04 01:48:27;;;;;;;29.07;9.73;;;7.80;99.90;;;;;;5108174;28;20164;-68
2021/04/04 01:50:54;;;;;;;32.83;11.00;;;7.90;99.90;;;;;;5107817;28;20163;-68
2021/04/04 01:53:21;;;;;;;26.73;11.77;;;7.90;99.90;;;;;;5107876;28;20167;-67
2021/04/04 01:55:47;;;;;;;30.70;12.40;;;7.90;99.90;;;;;;5105323;28;20195;-68
2021/04/04 01:58:13;;;;;;;28.97;11.50;;;8.20;99.90;;;;;;5107855;28;20159;-68
2021/04/04 02:00:41;;;;;;;23.43;11.00;;;8.40;99.90;;;;;;5107493;28;20243;-68
2021/04/04 02:03:08;;;;;;;35.53;10.47;;;8.50;99.90;;;;;;5107441;28;20167;-68
2021/04/04 02:05:35;;;;;;;32.30;11.93;;;8.60;99.90;;;;;;5086945;28;20176;-68
2021/04/04 02:08:07;;;;;;;33.17;12.43;;;8.60;99.90;;;;;;5089383;28;20236;-68
2021/04/04 02:10:35;;;;;;;34.83;13.57;;;8.70;99.90;;;;;;5107518;28;20160;-68
2021/04/04 02:13:02;;;;;;;27.57;13.37;;;8.80;99.90;;;;;;5107326;28;20624;-68
2021/04/04 02:15:30;;;;;;;36.63;14.67;;;8.90;99.90;;;;;;5104367;28;20215;-68
2021/04/04 02:17:57;;;;;;;33.47;13.93;;;9.00;99.90;;;;;;5089129;28;20578;-68
2021/04/04 02:20:26;;;;;;;37.27;13.80;;;9.00;99.90;;;;;;5107370;28;20177;-68
2021/04/04 02:22:54;;;;;;;33.97;12.87;;;9.00;99.90;;;;;;5089293;28;20255;-68
2021/04/04 02:25:19;;;;;;;33.93;12.60;;;9.10;99.90;;;;;;5104539;28;20306;-68
2021/04/04 02:27:46;;;;;;;27.33;11.77;;;8.70;99.90;;;;;;5088885;28;20168;-68
2021/04/04 02:30:17;;;;;;;39.90;12.60;;;8.70;99.90;;;;;;5106775;28;20272;-68
2021/04/04 02:32:49;;;;;;;28.83;11.53;;;8.80;99.90;;;;;;5088993;28;20182;-68
2021/04/04 02:35:21;;;;;;;27.87;12.60;;;8.80;99.90;;;;;;5104532;28;20241;-68
2021/04/04 02:37:48;;;;;;;25.17;10.63;;;8.90;99.90;;;;;;5107172;28;20242;-68
2021/04/04 02:40:15;;;;;;;30.87;10.73;;;9.00;99.90;;;;;;5106874;28;20159;-68
2021/04/04 02:42:43;;;;;;;25.77;10.30;;;9.00;99.90;;;;;;5107084;28;20159;-69
2021/04/04 02:45:10;;;;;;;20.07;9.87;;;9.00;99.90;;;;;;5104701;28;20167;-68
2021/04/04 02:47:57;;;;;;;24.20;9.57;;;9.00;99.90;;;;;;5106652;28;20159;-68
2021/04/04 02:50:26;;;;;;;32.23;9.37;;;8.90;99.90;;;;;;5106888;28;20164;-68
2021/04/04 02:52:55;;;;;;;22.67;9.80;;;9.00;99.90;;;;;;5106904;28;20164;-68
2021/04/04 02:55:22;;;;;;;27.83;8.80;;;9.00;99.90;;;;;;5103879;28;20400;-68
2021/04/04 02:57:52;;;;;;;32.90;9.27;;;9.10;99.90;;;;;;5106852;28;20159;-68
2021/04/04 03:00:18;;;;;;;29.13;8.00;;;9.10;99.90;;;;;;5088259;28;20646;-68
2021/04/04 03:02:44;;;;;;;21.23;8.10;;;9.10;99.90;;;;;;5106786;28;20632;-68
2021/04/04 03:05:10;;;;;;;25.60;8.67;;;8.90;99.90;;;;;;5104530;28;20161;-68
2021/04/04 03:07:40;;;;;;;21.60;8.17;;;9.00;99.90;;;;;;5106422;28;20151;-68
2021/04/04 03:10:07;;;;;;;22.30;7.90;;;9.00;99.90;;;;;;5106413;28;20212;-68
2021/04/04 03:12:34;;;;;;;35.43;9.93;;;9.00;99.90;;;;;;5106582;28;20163;-68
2021/04/04 03:15:02;;;;;;;26.10;9.30;;;9.10;99.90;;;;;;5086551;28;20187;-68
2021/04/04 03:17:30;;;;;;;21.40;9.43;;;9.10;99.90;;;;;;5086984;28;20231;-68
2021/04/04 03:19:56;;;;;;;24.47;9.60;;;9.00;99.90;;;;;;5105995;28;20155;-68
2021/04/04 03:22:23;;;;;;;33.30;9.67;;;9.10;99.90;;;;;;5106269;28;20167;-68
2021/04/04 03:24:50;;;;;;;32.80;9.43;;;9.10;99.90;;;;;;5106170;28;20213;-68
2021/04/04 03:27:18;;;;;;;30.17;9.47;;;9.10;99.90;;;;;;5103680;28;20190;-68
2021/04/04 03:29:45;;;;;;;33.47;9.87;;;9.10;99.90;;;;;;5105559;28;20221;-68
2021/04/04 03:32:11;;;;;;;27.83;9.20;;;9.10;99.90;;;;;;5106058;28;20160;-68
2021/04/04 03:34:38;;;;;;;21.30;8.47;;;9.10;99.90;;;;;;5105996;28;20191;-68
2021/04/04 03:37:04;;;;;;;25.57;9.00;;;9.20;99.90;;;;;;5103537;28;20167;-68
2021/04/04 03:39:30;;;;;;;32.03;9.20;;;9.10;99.90;;;;;;5105945;28;20167;-69
2021/04/04 03:41:58;;;;;;;32.10;9.33;;;9.20;99.90;;;;;;5105934;28;20200;-68
2021/04/04 03:44:32;;;;;;;26.70;8.60;;;9.10;99.90;;;;;;5105583;28;20167;-68
2021/04/04 03:46:58;;;;;;;30.03;9.03;;;9.20;99.90;;;;;;5103389;28;20163;-68
2021/04/04 03:49:25;;;;;;;30.50;8.83;;;9.20;99.90;;;;;;5105995;28;20160;-68
2021/04/04 03:51:59;;;;;;;25.00;8.43;;;9.20;99.90;;;;;;5105811;28;20160;-68
2021/04/04 03:54:25;;;;;;;29.50;9.30;;;9.10;99.90;;;;;;5105623;28;20159;-68
2021/04/04 03:56:53;;;;;;;23.70;8.03;;;9.00;99.90;;;;;;5103516;28;20155;-68
2021/04/04 03:59:22;;;;;;;30.93;8.87;;;8.90;99.90;;;;;;5105704;28;20193;-68
2021/04/04 04:01:49;;;;;;;34.43;8.73;;;9.00;99.90;;;;;;5105696;28;20159;-69
2021/04/04 04:04:16;;;;;;;24.60;7.87;;;9.00;99.90;;;;;;5105520;28;20169;-68
2021/04/04 04:06:43;;;;;;;33.83;9.50;;;9.00;99.90;;;;;;5105521;28;20151;-68
2021/04/04 04:09:18;;;;;;;19.33;7.90;;;8.90;99.90;;;;;;5109976;28;20596;-68
2021/04/04 04:11:46;;;;;;;27.53;7.93;;;8.80;99.90;;;;;;5109882;28;20161;-68
2021/04/04 04:14:14;;;;;;;27.77;9.52;;;8.80;99.90;;;;;;5090965;28;20401;-68
2021/04/04 04:16:41;;;;;;;30.57;8.43;;;8.90;99.90;;;;;;5107299;28;20228;-68
2021/04/04 04:19:08;;;;;;;25.50;8.23;;;9.00;99.90;;;;;;5109591;28;20198;-68
2021/04/04 04:21:36;;;;;;;22.70;8.40;;;8.90;99.90;;;;;;5109624;28;20613;-68
2021/04/04 04:24:04;;;;;;;23.00;7.73;;;8.90;99.90;;;;;;5109453;28;20231;-68
2021/04/04 04:26:32;;;;;;;31.10;8.20;;;8.90;99.90;;;;;;5106924;28;20244;-68
2021/04/04 04:28:58;;;;;;;27.97;8.33;;;8.80;99.90;;;;;;5108930;28;20225;-68
2021/04/04 04:31:32;;;;;;;29.43;8.47;;;8.80;99.90;;;;;;5109498;28;20159;-68
2021/04/04 04:34:01;;;;;;;20.43;7.87;;;8.80;99.90;;;;;;5109321;28;20256;-68
2021/04/04 04:36:27;;;;;;;24.27;8.97;;;8.80;99.90;;;;;;5106823;28;20191;-68
2021/04/04 04:38:54;;;;;;;37.47;9.03;;;8.80;99.90;;;;;;5109189;28;20160;-68
2021/04/04 04:41:21;;;;;;;33.80;9.07;;;8.90;99.90;;;;;;5091176;28;20159;-68
2021/04/04 04:43:53;;;;;;;30.85;10.40;;;9.00;99.90;;;;;;5108084;28;20522;-68
2021/04/04 04:46:19;;;;;;;29.47;9.03;;;9.30;99.90;;;;;;5106787;28;20170;-68
2021/04/04 04:48:45;;;;;;;30.50;8.87;;;9.20;99.90;;;;;;5109333;28;20167;-68
2021/04/04 04:51:11;;;;;;;27.43;9.07;;;9.00;99.90;;;;;;5108987;28;20509;-68
2021/04/04 04:53:38;;;;;;;25.93;8.83;;;9.10;99.90;;;;;;5108950;28;20660;-68
2021/04/04 04:56:04;;;;;;;20.73;8.60;;;9.10;99.90;;;;;;5106373;28;20191;-68
2021/04/04 04:58:31;;;;;;;15.63;7.53;;;9.00;99.90;;;;;;5108853;28;20193;-68
2021/04/04 05:01:01;;;;;;;28.90;9.55;;;8.70;99.90;;;;;;5108389;28;20407;-68
2021/04/04 05:03:26;;;;;;;26.37;9.30;;;8.80;99.90;;;;;;5108903;28;20160;-68
2021/04/04 05:05:52;;;;;;;34.77;9.53;;;9.00;99.90;;;;;;5106213;28;20228;-68
2021/04/04 05:08:20;;;;;;;18.63;8.93;;;9.00;99.90;;;;;;5108880;28;20183;-68
2021/04/04 05:10:46;;;;;;;34.53;9.17;;;9.00;99.90;;;;;;5108926;28;20171;-68
2021/04/04 05:13:13;;;;;;;25.27;8.13;;;9.00;99.90;;;;;;5108606;28;20170;-68
2021/04/04 05:15:40;;;;;;;33.57;8.83;;;8.90;99.90;;;;;;5105867;28;20250;-68
2021/04/04 05:18:06;;;;;;;31.10;9.93;;;8.80;99.90;;;;;;5107220;28;20621;-68
2021/04/04 05:20:33;;;;;;;33.07;9.93;;;8.90;99.90;;;;;;5108490;28;20194;-68
2021/04/04 05:22:59;;;;;;;33.77;9.30;;;8.90;99.90;;;;;;5108425;28;20151;-68
2021/04/04 05:25:26;;;;;;;26.47;10.20;;;8.90;99.90;;;;;;5087581;28;20183;-68
2021/04/04 05:27:52;;;;;;;25.97;8.90;;;8.90;99.90;;;;;;5090148;28;20167;-68
2021/04/04 05:30:18;;;;;;;27.10;8.73;;;8.90;99.90;;;;;;5108014;28;20211;-68
2021/04/04 05:32:49;;;;;;;28.43;10.07;;;8.70;99.90;;;;;;5090348;28;20537;-68
2021/04/04 05:35:16;;;;;;;28.07;9.10;;;8.70;99.90;;;;;;5087428;28;20197;-68
2021/04/04 05:37:43;;;;;;;25.37;9.00;;;8.70;99.90;;;;;;5108110;28;20224;-68
2021/04/04 05:40:26;;;;;;;23.10;9.53;;;8.60;99.90;;;;;;5108127;28;20166;-68
2021/04/04 05:42:55;;;;;;;22.63;9.40;;;8.40;99.90;;;;;;5108029;28;20147;-68
2021/04/04 05:45:41;;;;;;;25.10;10.30;;;8.30;99.90;;;;;;5105073;28;20564;-68
2021/04/04 05:48:11;;;;;;;33.57;8.90;;;8.30;99.90;;;;;;5107985;28;20160;-68
2021/04/04 05:51:04;;;;;;;26.13;9.47;;;8.30;99.90;;;;;;5107597;28;20159;-68
2021/04/04 05:53:41;;;;;;;36.40;10.00;;;8.40;99.90;;;;;;5107673;28;20160;-68
2021/04/04 05:56:13;;;;;;;30.17;9.87;;;8.70;99.90;;;;;;5105042;28;20203;-68
2021/04/04 05:58:50;;;;;;;44.77;10.13;;;8.70;99.90;;;;;;5089483;28;20180;-68
2021/04/04 06:01:25;;;;;;;27.60;9.77;;;8.70;99.90;;;;;;5107768;28;20692;-68
2021/04/04 06:03:53;;;;;;;23.83;9.27;;;8.80;99.90;;;;;;5107657;28;20163;-67
2021/04/04 06:06:45;;;;;;;34.73;10.73;;;8.80;99.90;;;;;;5105292;28;20195;-68
2021/04/04 06:09:38;;;;;;;27.97;11.27;;;8.70;99.90;;;;;;5093966;28;20194;-68
2021/04/04 06:12:30;;;;;;;31.03;11.53;;;8.70;99.90;;;;;;5107350;28;20163;-69
2021/04/04 06:15:32;;;;;;;32.03;11.63;;;8.70;99.90;;;;;;5094904;28;20237;-68
2021/04/04 06:18:24;;;;;;;29.87;11.10;;;8.70;99.90;;;;;;5088952;28;20167;-68
2021/04/04 06:21:15;;;;;;;29.47;11.40;;;8.60;99.90;;;;;;5107456;28;20185;-68
2021/04/04 06:23:59;;;;;;;33.70;12.33;;;8.60;99.90;;;;;;5107092;28;20167;-68
2021/04/04 06:26:54;;;;;;;28.50;11.97;;;8.70;99.90;;;;;;5086389;28;20174;-68
2021/04/04 06:29:42;;;;;;;38.40;12.60;;;8.60;99.90;;;;;;5088118;28;20211;-68
2021/04/04 06:32:15;;;;;;;24.17;11.47;;;8.70;99.90;;;;;;5088709;28;20167;-68
2021/04/04 06:34:53;;;;;;;33.15;13.52;;;8.70;99.90;;;;;;5105843;28;20424;-68
2021/04/04 06:37:22;;;;;;;26.00;12.70;;;9.10;99.90;;;;;;5104693;28;20185;-68
2021/04/04 06:40:15;;;;;;;28.27;11.73;;;9.20;99.90;;;;;;5106985;28;20178;-67
2021/04/04 06:42:56;;;;;;;39.58;14.70;;;9.20;99.90;;;;;;5102738;28;20418;-68
2021/04/04 06:45:43;;;;;;;33.33;12.37;;;9.20;99.90;;;;;;5104060;28;20821;-68
2021/04/04 06:48:29;;;;;;;39.17;11.93;;;9.20;99.90;;;;;;5106636;28;20163;-67
2021/04/04 06:51:04;;;;;;;26.47;11.90;;;9.20;99.90;;;;;;5106584;28;20190;-68
2021/04/04 06:54:01;;;;;;;35.13;12.00;;;9.20;99.90;;;;;;5106804;28;20169;-68
2021/04/04 06:56:51;;;;;;;27.37;11.50;;;9.10;99.90;;;;;;5104004;28;20198;-68
2021/04/04 06:59:37;;;;;;;33.23;12.37;;;9.00;99.90;;;;;;5106346;28;20183;-68
2021/04/04 07:02:07;;;;;;;28.57;11.50;;;9.00;99.90;;;;;;5106583;28;20159;-68
2021/04/04 07:04:52;;;;;;;25.53;10.60;;;8.90;99.90;;;;;;5106222;28;20167;-68
2021/04/04 07:07:44;;;;;;;26.77;11.47;;;8.80;99.90;;;;;;5103767;28;20285;-68
2021/04/04 07:10:27;;;;;;;28.37;12.03;;;8.80;99.90;;;;;;5088316;28;20316;-68
2021/04/04 07:13:32;;;;;;;28.63;12.40;;;8.90;99.90;;;;;;5106374;28;20163;-68
2021/04/04 07:16:06;;;;;;;40.70;12.73;;;9.00;99.90;;;;;;5084838;28;20282;-68
2021/04/04 07:19:03;;;;;;;37.20;13.70;;;9.30;99.90;;;;;;5105931;28;20535;-68
2021/04/04 07:21:50;;;;;;;36.53;13.07;;;9.40;99.90;;;;;;5105696;28;20175;-68
2021/04/04 07:24:19;;;;;;;29.27;13.87;;;9.50;99.90;;;;;;5105661;28;20193;-68
2021/04/04 07:26:58;;;;;;;34.57;13.97;;;9.40;99.90;;;;;;5103359;28;20460;-68
2021/04/04 07:29:51;;;;;;;36.67;14.73;;;9.40;99.90;;;;;;5105674;28;20211;-68
2021/04/04 07:32:31;;;;;;;36.73;15.67;;;9.30;99.90;;;;;;5106249;28;20187;-68
2021/04/04 07:35:12;;;;;;;36.13;16.80;;;9.20;99.90;;;;;;5105147;28;20265;-68
2021/04/04 07:37:51;;;;;;;37.67;16.33;;;9.10;99.90;;;;;;5104984;28;20170;-68
2021/04/04 07:40:48;;;;;;;38.20;18.47;;;9.00;99.90;;;;;;5104852;28;20156;-68
2021/04/04 07:43:21;;;;;;;39.77;19.10;;;9.10;99.90;;;;;;5083454;28;20209;-68
2021/04/04 07:46:12;;;;;;;42.50;18.57;;;9.20;99.90;;;;;;5102668;28;20258;-68
2021/04/04 07:48:46;;;;;;;60.77;28.97;;;9.20;99.90;;;;;;5105474;28;20159;-68
2021/04/04 07:51:17;;;;;;;150.90;60.60;;;9.10;99.90;;;;;;5104945;28;20352;-68
2021/04/04 07:54:21;;;;;;;58.93;30.30;;;9.10;99.90;;;;;;5105496;28;20160;-68
2021/04/04 07:56:55;;;;;;;36.10;18.17;;;9.00;99.90;;;;;;5000669;28;20193;-68
2021/04/04 07:59:37;;;;;;;42.43;19.90;;;9.10;99.90;;;;;;5002969;28;20193;-68
2021/04/04 08:02:09;;;;;;;34.57;18.53;;;9.10;99.90;;;;;;5003464;28;20179;-68
2021/04/04 08:04:46;;;;;;;31.63;17.83;;;9.20;99.90;;;;;;5003471;28;20178;-69
2021/04/04 08:07:28;;;;;;;32.97;17.30;;;9.30;99.90;;;;;;5000312;28;20234;-68
2021/04/04 08:10:09;;;;;;;31.27;16.37;;;9.30;99.90;;;;;;5003081;28;20184;-68
2021/04/04 08:12:49;;;;;;;32.70;16.80;;;9.50;99.90;;;;;;5003415;28;20186;-68
2021/04/04 08:15:21;;;;;;;28.20;14.50;;;9.30;99.90;;;;;;5000031;28;20198;-68
2021/04/04 08:17:47;;;;;;;33.57;14.70;;;9.10;99.90;;;;;;5002992;28;20163;-68
2021/04/04 08:20:32;;;;;;;32.53;16.07;;;9.00;99.90;;;;;;5002774;28;20885;-68
2021/04/04 08:23:09;;;;;;;30.20;14.83;;;9.00;99.90;;;;;;5003166;28;20164;-68
2021/04/04 08:25:54;;;;;;;29.27;14.83;;;9.20;99.90;;;;;;5000375;28;20237;-68
2021/04/04 08:28:33;;;;;;;23.60;13.37;;;9.40;99.90;;;;;;5003729;28;20178;-69
2021/04/04 08:31:27;;;;;;;35.97;13.87;;;9.40;99.90;;;;;;4986283;28;20695;-68
2021/04/04 08:34:00;;;;;;;30.23;14.37;;;9.50;99.90;;;;;;5104694;28;20174;-68
2021/04/04 08:36:29;;;;;;;29.45;14.27;;;9.40;99.90;;;;;;5101859;28;20452;-68
2021/04/04 08:38:57;;;;;;;30.33;12.40;;;9.60;99.90;;;;;;5104775;28;20170;-68
2021/04/04 08:41:24;;;;;;;24.20;12.63;;;9.40;99.90;;;;;;5102941;28;20152;-68
2021/04/04 08:44:03;;;;;;;26.73;13.53;;;9.30;99.90;;;;;;5103402;28;20209;-68
2021/04/04 08:46:44;;;;;;;26.75;12.60;;;9.40;99.90;;;;;;5101811;28;20403;-68
2021/04/04 08:49:11;;;;;;;30.77;11.67;;;9.10;99.90;;;;;;5104789;28;20166;-68
2021/04/04 08:51:40;;;;;;;27.33;11.43;;;9.50;99.90;;;;;;5105010;28;20163;-68
2021/04/04 08:54:18;;;;;;;24.23;12.90;;;9.40;99.90;;;;;;5108470;28;20160;-68
2021/04/04 08:56:46;;;;;;;34.17;19.35;;;9.40;99.90;;;;;;5105368;28;20454;-68
2021/04/04 08:59:16;;;;;;;34.80;19.20;;;9.20;99.90;;;;;;5107995;28;20248;-68
2021/04/04 09:01:48;;;;;;;38.40;18.52;;;9.20;99.90;;;;;;5107376;28;20400;-68
2021/04/04 09:04:14;;;;;;;37.90;17.23;;;9.70;99.90;;;;;;5108221;28;20164;-68
2021/04/04 09:06:42;;;;;;;31.93;16.70;;;9.70;99.90;;;;;;5105889;28;20245;-68
2021/04/04 09:09:16;;;;;;;50.30;24.73;;;10.00;99.90;;;;;;5108436;28;20198;-68
2021/04/04 09:11:44;;;;;;;37.35;17.55;;;9.80;99.90;;;;;;5108293;28;20442;-68
2021/04/04 09:14:10;;;;;;;28.93;16.37;;;10.10;99.90;;;;;;5108203;28;20159;-68
2021/04/04 09:16:36;;;;;;;29.47;14.70;;;10.00;99.90;;;;;;5105774;28;20191;-68
2021/04/04 09:19:02;;;;;;;24.50;13.03;;;9.70;99.90;;;;;;5089255;28;20600;-68
2021/04/04 09:21:36;;;;;;;32.47;15.33;;;10.10;99.90;;;;;;5107616;28;20164;-68
2021/04/04 09:24:03;;;;;;;26.40;13.27;;;10.50;99.90;;;;;;5089788;28;20190;-68
2021/04/04 09:26:30;;;;;;;25.23;11.63;;;10.60;99.90;;;;;;5105523;28;20163;-68
2021/04/04 09:28:57;;;;;;;29.17;13.10;;;10.50;99.90;;;;;;5107569;28;20214;-68
2021/04/04 09:31:32;;;;;;;23.50;12.13;;;10.30;99.90;;;;;;5108090;28;20197;-68
2021/04/04 09:34:26;;;;;;;35.43;12.83;;;10.60;99.90;;;;;;5107683;28;20163;-68
2021/04/04 09:36:52;;;;;;;29.83;12.50;;;10.80;99.90;;;;;;5102058;28;20187;-68
2021/04/04 09:39:25;;;;;;;26.30;10.97;;;11.00;99.90;;;;;;5108017;28;20166;-68
2021/04/04 09:41:52;;;;;;;28.13;12.37;;;10.70;99.90;;;;;;5089775;28;20572;-68
2021/04/04 09:44:27;;;;;;;20.53;12.70;;;10.60;99.90;;;;;;5089321;28;20171;-68
2021/04/04 09:46:53;;;;;;;24.40;11.20;;;10.50;99.90;;;;;;5087032;28;20159;-68
2021/04/04 09:49:42;;;;;;;22.77;9.70;;;10.50;99.90;;;;;;5107746;28;20535;-68
2021/04/04 09:52:14;;;;;;;21.03;8.87;;;10.30;99.90;;;;;;5107479;28;20217;-68
2021/04/04 09:55:05;;;;;;;22.30;8.50;;;10.20;99.90;;;;;;5107556;28;20174;-68
2021/04/04 09:57:39;;;;;;;30.37;9.20;;;10.30;99.90;;;;;;5106667;28;20170;-68
2021/04/04 10:00:33;;;;;;;28.13;10.40;;;10.20;99.90;;;;;;5107063;28;20171;-68
2021/04/04 10:03:15;;;;;;;18.37;8.83;;;10.10;99.90;;;;;;5089131;28;20167;-68
2021/04/04 10:05:43;;;;;;;18.87;8.50;;;10.00;99.90;;;;;;5104725;28;20264;-68
2021/04/04 10:08:35;;;;;;;22.03;9.30;;;9.60;99.90;;;;;;5107386;28;20164;-68
2021/04/04 10:11:14;;;;;;;20.07;9.37;;;9.50;99.90;;;;;;5102235;28;20209;-68
2021/04/04 10:13:39;;;;;;;24.90;10.50;;;9.30;99.90;;;;;;5107228;28;20285;-69
2021/04/04 10:16:23;;;;;;;22.23;9.53;;;9.50;99.90;;;;;;5103959;28;20278;-68
2021/04/04 10:19:13;;;;;;;23.00;9.60;;;9.70;99.90;;;;;;5107385;28;20151;-69
2021/04/04 10:21:41;;;;;;;23.88;10.45;;;10.00;99.90;;;;;;5086875;28;20409;-68
2021/04/04 10:24:28;;;;;;;21.87;9.03;;;10.30;99.90;;;;;;5088460;28;20170;-68
2021/04/04 10:27:24;;;;;;;23.63;10.90;;;10.00;99.90;;;;;;5103014;28;20413;-68
2021/04/04 10:30:13;;;;;;;25.30;10.60;;;10.40;99.90;;;;;;5106472;28;20625;-68
2021/04/04 10:32:43;;;;;;;20.97;8.23;;;10.30;99.90;;;;;;5088249;28;20168;-69
2021/04/04 10:35:10;;;;;;;23.00;9.97;;;10.00;99.90;;;;;;5105033;28;20194;-68
2021/04/04 10:37:37;;;;;;;39.00;15.30;;;10.00;99.90;;;;;;5106328;28;20251;-68
2021/04/04 10:40:08;;;;;;;20.93;9.13;;;9.90;99.90;;;;;;5106779;28;20166;-68
2021/04/04 10:42:35;;;;;;;36.17;14.87;;;9.90;99.90;;;;;;5106904;28;20163;-68
2021/04/04 10:45:07;;;;;;;26.30;10.68;;;9.90;99.90;;;;;;5104814;28;20415;-68
2021/04/04 10:47:32;;;;;;;26.37;9.63;;;10.40;99.90;;;;;;5106156;28;20189;-68
2021/04/04 10:50:03;;;;;;;19.20;8.63;;;10.50;99.90;;;;;;5088149;28;20159;-67
2021/04/04 10:52:29;;;;;;;19.88;8.82;;;10.70;99.90;;;;;;5087630;28;20409;-68
2021/04/04 10:54:56;;;;;;;22.57;8.83;;;10.80;99.90;;;;;;5087749;28;20191;-67
2021/04/04 10:57:22;;;;;;;17.57;7.63;;;10.90;99.90;;;;;;5085828;28;20156;-68
2021/04/04 10:59:48;;;;;;;25.58;10.00;;;11.00;99.90;;;;;;5104859;28;20428;-68
2021/04/04 11:02:15;;;;;;;22.03;9.97;;;11.10;99.90;;;;;;5106046;28;20168;-68
2021/04/04 11:04:41;;;;;;;17.30;8.63;;;11.00;99.90;;;;;;5105885;28;20174;-68
2021/04/04 11:07:07;;;;;;;29.53;8.80;;;11.10;99.90;;;;;;5102873;28;20151;-68
2021/04/04 11:09:33;;;;;;;21.17;9.13;;;10.90;99.90;;;;;;5087636;28;20168;-68
2021/04/04 11:12:01;;;;;;;17.47;8.60;;;10.90;99.90;;;;;;5105947;28;20218;-69
2021/04/04 11:14:31;;;;;;;28.33;9.00;;;11.00;99.90;;;;;;5105614;28;20197;-68
2021/04/04 11:17:00;;;;;;;19.60;7.87;;;10.80;99.90;;;;;;5085206;28;20250;-68
2021/04/04 11:19:28;;;;;;;22.03;8.30;;;11.00;99.90;;;;;;5106023;28;20155;-68
2021/04/04 11:21:57;;;;;;;21.30;8.73;;;10.90;99.90;;;;;;5105016;28;20155;-68
2021/04/04 11:24:23;;;;;;;19.80;8.17;;;10.90;99.90;;;;;;5105990;28;20222;-67
2021/04/04 11:27:02;;;;;;;22.27;7.93;;;11.10;99.90;;;;;;5103451;28;20167;-66
2021/04/04 11:29:28;;;;;;;18.30;8.23;;;11.00;99.90;;;;;;5105452;28;20647;-67
2021/04/04 11:32:13;;;;;;;15.13;7.23;;;11.10;99.90;;;;;;5105741;28;20159;-67
2021/04/04 11:34:40;;;;;;;23.33;8.60;;;11.20;99.90;;;;;;5105653;28;20167;-67
2021/04/04 11:37:11;;;;;;;9.80;7.50;;;11.30;99.90;;;;;;5102972;28;20159;-68
2021/04/04 11:39:37;;;;;;;15.33;6.20;;;11.20;99.90;;;;;;5105744;28;20165;-67
2021/04/04 11:42:04;;;;;;;21.90;6.90;;;11.10;99.90;;;;;;5105676;28;20178;-68
2021/04/04 11:44:41;;;;;;;15.97;6.00;;;11.10;99.90;;;;;;5105287;28;20625;-68
2021/04/04 11:47:16;;;;;;;14.83;5.57;;;10.80;99.90;;;;;;5102909;28;20648;-68
2021/04/04 11:49:46;;;;;;;11.63;5.40;;;10.70;99.90;;;;;;5105676;28;20171;-67
2021/04/04 11:52:11;;;;;;;10.37;5.57;;;10.50;99.90;;;;;;5105506;28;20667;-68
2021/04/04 11:54:49;;;;;;;13.40;5.70;;;10.50;99.90;;;;;;5105509;28;20163;-67
2021/04/04 11:57:20;;;;;;;18.40;5.53;;;10.60;99.90;;;;;;5102869;28;20167;-68
2021/04/04 11:59:50;;;;;;;13.23;5.43;;;10.90;99.90;;;;;;5104751;28;20234;-67
2021/04/04 12:02:18;;;;;;;11.60;4.97;;;10.80;99.90;;;;;;5105231;28;20155;-67
2021/04/04 12:04:48;;;;;;;21.90;6.67;;;10.60;99.90;;;;;;5105273;28;20163;-68
2021/04/04 12:07:14;;;;;;;16.63;5.93;;;10.90;99.90;;;;;;5102776;28;20182;-67
2021/04/04 12:09:42;;;;;;;22.03;6.10;;;10.90;99.90;;;;;;5087226;28;20163;-67
2021/04/04 12:12:09;;;;;;;14.93;5.93;;;10.80;99.90;;;;;;5105201;28;20164;-67
2021/04/04 12:14:52;;;;;;;13.73;4.93;;;10.90;99.90;;;;;;5105032;28;20171;-68
2021/04/04 12:17:26;;;;;;;12.77;5.50;;;11.00;99.90;;;;;;5102880;28;20155;-67
2021/04/04 12:19:52;;;;;;;21.97;7.60;;;11.20;99.90;;;;;;5104926;28;20167;-67
2021/04/04 12:22:19;;;;;;;20.88;6.00;;;11.40;99.90;;;;;;5105382;28;20401;-68
2021/04/04 12:24:52;;;;;;;10.90;5.23;;;11.30;99.90;;;;;;5105119;28;20166;-68
2021/04/04 12:27:26;;;;;;;16.53;5.57;;;11.20;99.90;;;;;;5086119;28;20189;-68
2021/04/04 12:29:54;;;;;;;18.30;5.57;;;10.90;99.90;;;;;;5108813;28;20275;-68
2021/04/04 12:32:22;;;;;;;16.73;5.67;;;10.90;99.90;;;;;;5090922;28;20429;-68
2021/04/04 12:34:50;;;;;;;20.47;5.80;;;10.70;99.90;;;;;;5090914;28;20167;-67
2021/04/04 12:37:21;;;;;;;18.37;5.73;;;10.80;99.90;;;;;;5088355;28;20198;-68
2021/04/04 12:39:47;;;;;;;15.77;5.60;;;11.00;99.90;;;;;;5108997;28;20424;-67
2021/04/04 12:42:19;;;;;;;15.23;5.73;;;11.10;99.90;;;;;;5090869;28;20159;-68
2021/04/04 12:44:46;;;;;;;14.93;5.90;;;11.30;99.90;;;;;;5108485;28;20318;-68
2021/04/04 12:47:14;;;;;;;14.03;5.27;;;11.10;99.90;;;;;;5106586;28;20223;-68
2021/04/04 12:49:41;;;;;;;15.93;5.77;;;11.10;99.90;;;;;;5108827;28;20155;-68
2021/04/04 12:52:09;;;;;;;17.83;6.50;;;11.10;99.90;;;;;;5108960;28;20220;-68
2021/04/04 12:54:35;;;;;;;14.80;6.87;;;11.40;99.90;;;;;;5090414;28;20502;-68
2021/04/04 12:57:01;;;;;;;18.70;7.80;;;11.20;99.90;;;;;;5105707;28;20163;-68
2021/04/04 12:59:27;;;;;;;13.80;8.40;;;11.30;99.90;;;;;;5108230;28;20636;-68
2021/04/04 13:01:54;;;;;;;16.10;9.00;;;11.30;99.90;;;;;;5108220;28;20651;-68
2021/04/04 13:04:24;;;;;;;16.40;9.80;;;11.10;99.90;;;;;;5108891;28;20159;-68
2021/04/04 13:06:51;;;;;;;14.60;8.93;;;11.30;99.90;;;;;;5106319;28;20179;-68